sensor_id;sensor_type;location;lat;lon;timestamp;pressure;altitude;pressure_sealevel;temperature;humidity
53011;BME280;42803;55.762;38.084;2023-02-20T00:01:54;97515.22;;;-8.18;100.00
53011;BME280;42803;55.762;38.084;2023-02-20T00:04:23;97515.94;;;-8.19;100.00
53011;BME280;42803;55.762;38.084;2023-02-20T00:06:52;97515.22;;;-8.18;100.00
53011;BME280;42803;55.762;38.084;2023-02-20T00:09:21;97514.31;;;-8.18;100.00
53011;BME280;42803;55.762;38.084;2023-02-20T00:11:51;97512.69;;;-8.18;100.00
53011;BME280;42803;55.762;38.084;2023-02-20T00:14:20;97517.38;;;-8.21;100.00
53011;BME280;42803;55.762;38.084;2023-02-20T00:16:51;97518.13;;;-8.22;100.00
53011;BME280;42803;55.762;38.084;2023-02-20T00:19:20;97517.22;;;-8.22;100.00
53011;BME280;42803;55.762;38.084;2023-02-20T00:21:50;97521.53;;;-8.21;100.00
53011;BME280;42803;55.762;38.084;2023-02-20T00:24:19;97523.91;;;-8.23;100.00
53011;BME280;42803;55.762;38.084;2023-02-20T00:26:50;97519.59;;;-8.24;100.00
53011;BME280;42803;55.762;38.084;2023-02-20T00:29:21;97516.31;;;-8.23;100.00
53011;BME280;42803;55.762;38.084;2023-02-20T00:31:52;97522.13;;;-8.24;100.00
53011;BME280;42803;55.762;38.084;2023-02-20T00:34:22;97512.69;;;-8.25;100.00
53011;BME280;42803;55.762;38.084;2023-02-20T00:36:51;97516.69;;;-8.27;100.00
53011;BME280;42803;55.762;38.084;2023-02-20T00:39:20;97519.22;;;-8.34;100.00
53011;BME280;42803;55.762;38.084;2023-02-20T00:41:50;97516.38;;;-8.37;100.00
53011;BME280;42803;55.762;38.084;2023-02-20T00:44:19;97513.84;;;-8.37;100.00
53011;BME280;42803;55.762;38.084;2023-02-20T00:46:48;97510.59;;;-8.43;100.00
53011;BME280;42803;55.762;38.084;2023-02-20T00:49:18;97505.00;;;-8.48;100.00
53011;BME280;42803;55.762;38.084;2023-02-20T00:51:48;97510.06;;;-8.48;100.00
53011;BME280;42803;55.762;38.084;2023-02-20T00:54:18;97506.47;;;-8.50;100.00
53011;BME280;42803;55.762;38.084;2023-02-20T00:56:47;97511.19;;;-8.60;100.00
53011;BME280;42803;55.762;38.084;2023-02-20T00:59:16;97512.66;;;-8.62;100.00
53011;BME280;42803;55.762;38.084;2023-02-20T01:01:47;97510.66;;;-8.65;100.00
53011;BME280;42803;55.762;38.084;2023-02-20T01:04:16;97508.84;;;-8.66;100.00
53011;BME280;42803;55.762;38.084;2023-02-20T01:06:47;97515.69;;;-8.65;100.00
53011;BME280;42803;55.762;38.084;2023-02-20T01:09:16;97507.38;;;-8.64;100.00
53011;BME280;42803;55.762;38.084;2023-02-20T01:11:47;97510.66;;;-8.65;100.00
53011;BME280;42803;55.762;38.084;2023-02-20T01:14:16;97509.91;;;-8.64;100.00
53011;BME280;42803;55.762;38.084;2023-02-20T01:16:47;97510.66;;;-8.65;100.00
53011;BME280;42803;55.762;38.084;2023-02-20T01:19:18;97509.19;;;-8.63;100.00
53011;BME280;42803;55.762;38.084;2023-02-20T01:21:49;97505.97;;;-8.62;100.00
53011;BME280;42803;55.762;38.084;2023-02-20T01:24:19;97497.63;;;-8.61;100.00
53011;BME280;42803;55.762;38.084;2023-02-20T01:26:48;97500.00;;;-8.62;100.00
53011;BME280;42803;55.762;38.084;2023-02-20T01:29:18;97507.75;;;-8.61;100.00
53011;BME280;42803;55.762;38.084;2023-02-20T01:31:48;97510.44;;;-8.59;100.00
53011;BME280;42803;55.762;38.084;2023-02-20T01:34:18;97520.56;;;-8.59;100.00
53011;BME280;42803;55.762;38.084;2023-02-20T01:36:50;97512.06;;;-8.60;100.00
53011;BME280;42803;55.762;38.084;2023-02-20T01:39:22;97518.03;;;-8.59;100.00
53011;BME280;42803;55.762;38.084;2023-02-20T01:41:55;97517.88;;;-8.61;100.00
53011;BME280;42803;55.762;38.084;2023-02-20T01:44:27;97520.75;;;-8.65;100.00
53011;BME280;42803;55.762;38.084;2023-02-20T01:46:59;97519.66;;;-8.67;100.00
53011;BME280;42803;55.762;38.084;2023-02-20T01:49:33;97518.59;;;-8.69;100.00
53011;BME280;42803;55.762;38.084;2023-02-20T01:52:09;97521.84;;;-8.70;100.00
53011;BME280;42803;55.762;38.084;2023-02-20T01:54:41;97520.22;;;-8.76;100.00
53011;BME280;42803;55.762;38.084;2023-02-20T01:57:15;97524.03;;;-8.80;100.00
53011;BME280;42803;55.762;38.084;2023-02-20T01:59:46;97522.94;;;-8.82;100.00
53011;BME280;42803;55.762;38.084;2023-02-20T02:02:16;97521.84;;;-8.84;100.00
53011;BME280;42803;55.762;38.084;2023-02-20T02:04:46;97523.47;;;-8.92;100.00
53011;BME280;42803;55.762;38.084;2023-02-20T02:07:18;97528.00;;;-8.96;100.00
53011;BME280;42803;55.762;38.084;2023-02-20T02:09:50;97528.34;;;-9.00;100.00
53011;BME280;42803;55.762;38.084;2023-02-20T02:12:21;97534.84;;;-9.02;100.00
53011;BME280;42803;55.762;38.084;2023-02-20T02:14:50;97537.72;;;-9.06;100.00
53011;BME280;42803;55.762;38.084;2023-02-20T02:20:53;97540.25;;;-9.14;100.00
53011;BME280;42803;55.762;38.084;2023-02-20T02:24:11;97535.19;;;-9.14;100.00
53011;BME280;42803;55.762;38.084;2023-02-20T02:30:02;97541.66;;;-9.16;100.00
53011;BME280;42803;55.762;38.084;2023-02-20T02:32:57;97539.88;;;-9.17;100.00
53011;BME280;42803;55.762;38.084;2023-02-20T02:36:08;97540.22;;;-9.21;100.00
53011;BME280;42803;55.762;38.084;2023-02-20T02:38:47;97542.75;;;-9.21;100.00
53011;BME280;42803;55.762;38.084;2023-02-20T02:41:31;97544.56;;;-9.20;100.00
53011;BME280;42803;55.762;38.084;2023-02-20T02:44:10;97542.75;;;-9.21;100.00
53011;BME280;42803;55.762;38.084;2023-02-20T02:46:43;97553.75;;;-9.20;100.00
53011;BME280;42803;55.762;38.084;2023-02-20T02:49:19;97551.97;;;-9.21;100.00
53011;BME280;42803;55.762;38.084;2023-02-20T02:51:53;97553.97;;;-9.19;100.00
53011;BME280;42803;55.762;38.084;2023-02-20T02:54:25;97563.16;;;-9.19;100.00
53011;BME280;42803;55.762;38.084;2023-02-20T02:57:20;97563.34;;;-9.18;100.00
53011;BME280;42803;55.762;38.084;2023-02-20T02:59:54;97561.53;;;-9.19;100.00
53011;BME280;42803;55.762;38.084;2023-02-20T03:02:26;97569.28;;;-9.17;100.00
53011;BME280;42803;55.762;38.084;2023-02-20T03:04:56;97562.81;;;-9.15;100.00
53011;BME280;42803;55.762;38.084;2023-02-20T03:07:29;97566.25;;;-9.15;100.00
53011;BME280;42803;55.762;38.084;2023-02-20T03:10:02;97574.88;;;-9.13;100.00
53011;BME280;42803;55.762;38.084;2023-02-20T03:12:37;97575.09;;;-9.11;100.00
53011;BME280;42803;55.762;38.084;2023-02-20T03:15:13;97570.03;;;-9.11;100.00
53011;BME280;42803;55.762;38.084;2023-02-20T03:18:13;97576.00;;;-9.11;100.00
53011;BME280;42803;55.762;38.084;2023-02-20T03:20:50;97569.47;;;-9.09;100.00
53011;BME280;42803;55.762;38.084;2023-02-20T03:23:24;97573.09;;;-9.06;100.00
53011;BME280;42803;55.762;38.084;2023-02-20T03:25:56;97576.38;;;-9.07;100.00
53011;BME280;42803;55.762;38.084;2023-02-20T03:28:30;97577.81;;;-9.02;100.00
53011;BME280;42803;55.762;38.084;2023-02-20T03:31:04;97579.44;;;-9.03;100.00
53011;BME280;42803;55.762;38.084;2023-02-20T03:33:42;97575.28;;;-9.02;100.00
53011;BME280;42803;55.762;38.084;2023-02-20T03:36:34;97569.13;;;-8.97;100.00
53011;BME280;42803;55.762;38.084;2023-02-20T03:39:29;97574.19;;;-8.97;100.00
53011;BME280;42803;55.762;38.084;2023-02-20T03:42:18;97574.56;;;-8.94;100.00
53011;BME280;42803;55.762;38.084;2023-02-20T03:45:14;97574.56;;;-8.94;100.00
53011;BME280;42803;55.762;38.084;2023-02-20T03:47:47;97580.88;;;-8.91;100.00
53011;BME280;42803;55.762;38.084;2023-02-20T03:50:21;97576.56;;;-8.92;100.00
53011;BME280;42803;55.762;38.084;2023-02-20T03:53:08;97591.53;;;-8.86;100.00
53011;BME280;42803;55.762;38.084;2023-02-20T03:55:38;97591.91;;;-8.83;100.00
53011;BME280;42803;55.762;38.084;2023-02-20T03:58:13;97585.59;;;-8.79;100.00
53011;BME280;42803;55.762;38.084;2023-02-20T04:00:47;97574.06;;;-8.77;100.00
53011;BME280;42803;55.762;38.084;2023-02-20T04:03:21;97567.91;;;-8.79;100.00
53011;BME280;42803;55.762;38.084;2023-02-20T04:05:54;97572.78;;;-8.81;100.00
53011;BME280;42803;55.762;38.084;2023-02-20T04:08:37;97576.38;;;-8.79;100.00
53011;BME280;42803;55.762;38.084;2023-02-20T04:11:13;97574.94;;;-8.77;100.00
53011;BME280;42803;55.762;38.084;2023-02-20T04:13:43;97567.69;;;-8.74;100.00
53011;BME280;42803;55.762;38.084;2023-02-20T04:16:13;97557.06;;;-8.71;100.00
53011;BME280;42803;55.762;38.084;2023-02-20T04:18:42;97565.16;;;-8.74;100.00
53011;BME280;42803;55.762;38.084;2023-02-20T04:21:18;97573.84;;;-8.72;100.00
53011;BME280;42803;55.762;38.084;2023-02-20T04:23:56;97572.75;;;-8.74;100.00
53011;BME280;42803;55.762;38.084;2023-02-20T04:26:30;97577.28;;;-8.71;100.00
53011;BME280;42803;55.762;38.084;2023-02-20T04:29:00;97572.06;;;-8.73;100.00
53011;BME280;42803;55.762;38.084;2023-02-20T04:31:31;97583.97;;;-8.72;100.00
53011;BME280;42803;55.762;38.084;2023-02-20T04:34:01;97584.88;;;-8.71;100.00
53011;BME280;42803;55.762;38.084;2023-02-20T04:36:30;97576.56;;;-8.70;100.00
53011;BME280;42803;55.762;38.084;2023-02-20T04:38:59;97582.53;;;-8.70;100.00
53011;BME280;42803;55.762;38.084;2023-02-20T04:41:33;97581.81;;;-8.69;100.00
53011;BME280;42803;55.762;38.084;2023-02-20T04:44:03;97586.13;;;-8.68;100.00
53011;BME280;42803;55.762;38.084;2023-02-20T04:46:50;97581.09;;;-8.68;100.00
53011;BME280;42803;55.762;38.084;2023-02-20T04:49:20;97578.53;;;-8.75;100.00
53011;BME280;42803;55.762;38.084;2023-02-20T04:51:53;97576.00;;;-8.82;100.00
53011;BME280;42803;55.762;38.084;2023-02-20T04:54:22;97576.03;;;-8.96;100.00
53011;BME280;42803;55.762;38.084;2023-02-20T04:56:53;97588.44;;;-8.98;100.00
53011;BME280;42803;55.762;38.084;2023-02-20T04:59:22;97581.59;;;-8.99;100.00
53011;BME280;42803;55.762;38.084;2023-02-20T05:01:52;97583.59;;;-9.03;100.00
53011;BME280;42803;55.762;38.084;2023-02-20T05:04:21;97585.19;;;-9.11;100.00
53011;BME280;42803;55.762;38.084;2023-02-20T05:06:52;97585.91;;;-9.12;100.00
53011;BME280;42803;55.762;38.084;2023-02-20T05:09:22;97587.34;;;-9.14;100.00
53011;BME280;42803;55.762;38.084;2023-02-20T05:11:53;97580.16;;;-9.11;100.00
53011;BME280;42803;55.762;38.084;2023-02-20T05:14:22;97584.31;;;-9.12;100.00
53011;BME280;42803;55.762;38.084;2023-02-20T05:16:51;97579.59;;;-9.09;100.00
53011;BME280;42803;55.762;38.084;2023-02-20T05:19:20;97590.06;;;-9.05;100.00
53011;BME280;42803;55.762;38.084;2023-02-20T05:21:49;97588.09;;;-9.01;100.00
53011;BME280;42803;55.762;38.084;2023-02-20T05:24:36;97589.34;;;-8.97;100.00
53011;BME280;42803;55.762;38.084;2023-02-20T05:27:06;97588.63;;;-8.89;100.00
53011;BME280;42803;55.762;38.084;2023-02-20T05:29:36;97581.06;;;-8.75;100.00
53011;BME280;42803;55.762;38.084;2023-02-20T05:32:05;97585.97;;;-8.69;100.00
53011;BME280;42803;55.762;38.084;2023-02-20T05:34:34;97576.75;;;-8.62;100.00
53011;BME280;42803;55.762;38.084;2023-02-20T05:37:03;97579.63;;;-8.51;100.00
53011;BME280;42803;55.762;38.084;2023-02-20T05:39:33;97583.25;;;-8.49;100.00
53011;BME280;42803;55.762;38.084;2023-02-20T05:42:02;97587.56;;;-8.48;100.00
53011;BME280;42803;55.762;38.084;2023-02-20T05:44:33;97578.56;;;-8.46;100.00
53011;BME280;42803;55.762;38.084;2023-02-20T05:47:03;97585.59;;;-8.44;100.00
53011;BME280;42803;55.762;38.084;2023-02-20T05:49:32;97587.94;;;-8.38;100.00
53011;BME280;42803;55.762;38.084;2023-02-20T05:52:02;97594.81;;;-8.37;100.00
53011;BME280;42803;55.762;38.084;2023-02-20T05:54:36;97601.81;;;-8.27;100.00
53011;BME280;42803;55.762;38.084;2023-02-20T05:57:05;97598.34;;;-8.21;100.00
53011;BME280;42803;55.762;38.084;2023-02-20T05:59:36;97605.25;;;-8.20;100.00
53011;BME280;42803;55.762;38.084;2023-02-20T06:02:05;97607.03;;;-8.12;100.00
53011;BME280;42803;55.762;38.084;2023-02-20T06:04:34;97607.19;;;-8.10;100.00
53011;BME280;42803;55.762;38.084;2023-02-20T06:07:06;97611.38;;;-8.11;100.00
53011;BME280;42803;55.762;38.084;2023-02-20T06:09:40;97604.50;;;-8.12;100.00
53011;BME280;42803;55.762;38.084;2023-02-20T06:12:10;97605.56;;;-8.17;100.00
53011;BME280;42803;55.762;38.084;2023-02-20T06:14:41;97605.25;;;-8.20;100.00
53011;BME280;42803;55.762;38.084;2023-02-20T06:17:10;97613.75;;;-8.26;100.00
53011;BME280;42803;55.762;38.084;2023-02-20T06:19:39;97618.97;;;-8.25;100.00
53011;BME280;42803;55.762;38.084;2023-02-20T06:22:08;97615.75;;;-8.31;100.00
53011;BME280;42803;55.762;38.084;2023-02-20T06:24:37;97611.38;;;-8.25;100.00
53011;BME280;42803;55.762;38.084;2023-02-20T06:27:06;97618.59;;;-8.21;100.00
53011;BME280;42803;55.762;38.084;2023-02-20T06:29:35;97623.28;;;-8.17;100.00
53011;BME280;42803;55.762;38.084;2023-02-20T06:32:06;97620.22;;;-8.14;100.00
53011;BME280;42803;55.762;38.084;2023-02-20T06:34:36;97618.97;;;-8.11;100.00
53011;BME280;42803;55.762;38.084;2023-02-20T06:37:05;97617.47;;;-8.01;100.00
53011;BME280;42803;55.762;38.084;2023-02-20T06:39:35;97624.00;;;-8.03;100.00
53011;BME280;42803;55.762;38.084;2023-02-20T06:42:05;97625.44;;;-7.98;100.00
53011;BME280;42803;55.762;38.084;2023-02-20T06:44:34;97626.19;;;-7.99;100.00
53011;BME280;42803;55.762;38.084;2023-02-20T06:47:03;97628.03;;;-8.13;100.00
53011;BME280;42803;55.762;38.084;2023-02-20T06:49:37;97628.72;;;-8.14;100.00
53011;BME280;42803;55.762;38.084;2023-02-20T06:52:08;97625.06;;;-7.94;100.00
53011;BME280;42803;55.762;38.084;2023-02-20T06:54:37;97622.38;;;-7.89;100.00
53011;BME280;42803;55.762;38.084;2023-02-20T06:57:08;97622.69;;;-7.78;100.00
53011;BME280;42803;55.762;38.084;2023-02-20T06:59:37;97625.56;;;-7.68;100.00
53011;BME280;42803;55.762;38.084;2023-02-20T07:02:10;97620.50;;;-7.68;100.00
53011;BME280;42803;55.762;38.084;2023-02-20T07:04:41;97625.53;;;-7.54;100.00
53011;BME280;42803;55.762;38.084;2023-02-20T07:07:10;97622.38;;;-7.44;100.00
53011;BME280;42803;55.762;38.084;2023-02-20T07:09:39;97630.88;;;-7.37;99.63
53011;BME280;42803;55.762;38.084;2023-02-20T07:12:11;97630.72;;;-7.01;99.49
53011;BME280;42803;55.762;38.084;2023-02-20T07:14:40;97622.22;;;-6.48;99.83
53011;BME280;42803;55.762;38.084;2023-02-20T07:17:10;97625.41;;;-6.19;97.42
53011;BME280;42803;55.762;38.084;2023-02-20T07:19:41;97626.94;;;-5.90;94.41
53011;BME280;42803;55.762;38.084;2023-02-20T07:22:10;97626.31;;;-5.80;92.20
53011;BME280;42803;55.762;38.084;2023-02-20T07:24:39;97624.41;;;-5.42;90.21
53011;BME280;42803;55.762;38.084;2023-02-20T07:27:09;97632.03;;;-5.42;88.40
53011;BME280;42803;55.762;38.084;2023-02-20T07:29:38;97633.81;;;-5.89;87.84
53011;BME280;42803;55.762;38.084;2023-02-20T07:32:08;97631.00;;;-5.76;87.93
53011;BME280;42803;55.762;38.084;2023-02-20T07:34:37;97630.00;;;-5.53;87.20
53011;BME280;42803;55.762;38.084;2023-02-20T07:37:12;97627.88;;;-5.26;86.30
53011;BME280;42803;55.762;38.084;2023-02-20T07:39:41;97631.31;;;-5.09;84.98
53011;BME280;42803;55.762;38.084;2023-02-20T07:42:11;97630.78;;;-4.98;83.73
53011;BME280;42803;55.762;38.084;2023-02-20T07:44:50;97627.69;;;-5.11;83.54
53011;BME280;42803;55.762;38.084;2023-02-20T07:47:19;97627.34;;;-4.99;83.10
53011;BME280;42803;55.762;38.084;2023-02-20T07:49:48;97637.38;;;-5.32;84.30
53011;BME280;42803;55.762;38.084;2023-02-20T07:52:23;97634.09;;;-5.63;85.11
53011;BME280;42803;55.762;38.084;2023-02-20T07:54:52;97637.03;;;-5.67;86.54
53011;BME280;42803;55.762;38.084;2023-02-20T07:57:21;97643.53;;;-5.46;85.09
53011;BME280;42803;55.762;38.084;2023-02-20T07:59:51;97651.59;;;-5.34;85.51
53011;BME280;42803;55.762;38.084;2023-02-20T08:02:20;97642.06;;;-5.44;85.62
53011;BME280;42803;55.762;38.084;2023-02-20T08:04:51;97645.34;;;-5.29;83.69
53011;BME280;42803;55.762;38.084;2023-02-20T08:07:21;97649.59;;;-5.21;82.06
53011;BME280;42803;55.762;38.084;2023-02-20T08:09:50;97640.06;;;-4.99;83.52
53011;BME280;42803;55.762;38.084;2023-02-20T08:12:21;97647.47;;;-5.09;83.33
53011;BME280;42803;55.762;38.084;2023-02-20T08:14:50;97654.84;;;-5.03;82.08
53011;BME280;42803;55.762;38.084;2023-02-20T08:17:19;97655.56;;;-5.04;81.43
53011;BME280;42803;55.762;38.084;2023-02-20T08:19:49;97656.16;;;-4.91;81.10
53011;BME280;42803;55.762;38.084;2023-02-20T08:22:18;97655.56;;;-5.04;80.00
53011;BME280;42803;55.762;38.084;2023-02-20T08:24:53;97662.97;;;-5.46;80.19
53011;BME280;42803;55.762;38.084;2023-02-20T08:27:22;97662.97;;;-5.30;80.79
53011;BME280;42803;55.762;38.084;2023-02-20T08:29:52;97662.97;;;-5.46;80.84
53011;BME280;42803;55.762;38.084;2023-02-20T08:32:21;97662.88;;;-5.39;82.98
53011;BME280;42803;55.762;38.084;2023-02-20T08:34:50;97663.88;;;-6.00;81.61
53011;BME280;42803;55.762;38.084;2023-02-20T08:37:20;97660.81;;;-6.21;81.96
53011;BME280;42803;55.762;38.084;2023-02-20T08:39:49;97664.00;;;-6.15;82.72
53011;BME280;42803;55.762;38.084;2023-02-20T08:42:20;97665.16;;;-6.20;84.49
53011;BME280;42803;55.762;38.084;2023-02-20T08:44:49;97664.41;;;-6.19;86.17
53011;BME280;42803;55.762;38.084;2023-02-20T08:47:19;97662.94;;;-6.17;87.30
53011;BME280;42803;55.762;38.084;2023-02-20T08:49:50;97654.66;;;-6.23;86.94
53011;BME280;42803;55.762;38.084;2023-02-20T08:52:19;97664.78;;;-6.00;86.41
53011;BME280;42803;55.762;38.084;2023-02-20T08:54:48;97667.91;;;-5.86;85.86
53011;BME280;42803;55.762;38.084;2023-02-20T08:57:20;97665.53;;;-5.85;85.33
53011;BME280;42803;55.762;38.084;2023-02-20T08:59:50;97661.56;;;-5.67;84.87
53011;BME280;42803;55.762;38.084;2023-02-20T09:02:22;97667.00;;;-5.17;83.20
53011;BME280;42803;55.762;38.084;2023-02-20T09:04:56;97674.03;;;-4.98;82.29
53011;BME280;42803;55.762;38.084;2023-02-20T09:07:25;97672.97;;;-5.32;82.30
53011;BME280;42803;55.762;38.084;2023-02-20T09:09:54;97675.19;;;-5.03;82.39
53011;BME280;42803;55.762;38.084;2023-02-20T09:12:25;97676.50;;;-5.07;81.18
53011;BME280;42803;55.762;38.084;2023-02-20T09:14:54;97675.66;;;-4.83;82.08
53011;BME280;42803;55.762;38.084;2023-02-20T09:17:23;97677.19;;;-4.60;81.92
53011;BME280;42803;55.762;38.084;2023-02-20T09:19:54;97665.50;;;-4.58;81.92
53011;BME280;42803;55.762;38.084;2023-02-20T09:22:23;97661.75;;;-4.78;79.40
53011;BME280;42803;55.762;38.084;2023-02-20T09:24:55;97666.75;;;-4.95;80.33
53011;BME280;42803;55.762;38.084;2023-02-20T09:27:25;97666.94;;;-4.69;79.37
53011;BME280;42803;55.762;38.084;2023-02-20T09:29:54;97661.16;;;-4.10;78.42
53011;BME280;42803;55.762;38.084;2023-02-20T09:32:23;97656.47;;;-4.14;77.36
53011;BME280;42803;55.762;38.084;2023-02-20T09:34:53;97661.34;;;-4.74;77.90
53011;BME280;42803;55.762;38.084;2023-02-20T09:37:22;97658.63;;;-5.16;78.65
53011;BME280;42803;55.762;38.084;2023-02-20T09:39:51;97665.34;;;-5.16;79.07
53011;BME280;42803;55.762;38.084;2023-02-20T09:42:32;97662.41;;;-5.44;80.37
53011;BME280;42803;55.762;38.084;2023-02-20T09:45:09;97670.91;;;-5.27;81.09
53011;BME280;42803;55.762;38.084;2023-02-20T09:47:50;97659.09;;;-5.74;80.07
53011;BME280;42803;55.762;38.084;2023-02-20T09:50:32;97680.63;;;-5.86;80.12
53011;BME280;42803;55.762;38.084;2023-02-20T09:53:06;97677.34;;;-6.24;81.56
53011;BME280;42803;55.762;38.084;2023-02-20T09:55:40;97682.13;;;-6.11;81.62
53011;BME280;42803;55.762;38.084;2023-02-20T09:58:19;97672.38;;;-5.61;81.17
53011;BME280;42803;55.762;38.084;2023-02-20T10:00:50;97679.16;;;-5.30;80.25
53011;BME280;42803;55.762;38.084;2023-02-20T10:03:25;97675.91;;;-4.88;79.42
53011;BME280;42803;55.762;38.084;2023-02-20T10:05:57;97675.56;;;-4.76;78.50
53011;BME280;42803;55.762;38.084;2023-02-20T10:08:27;97665.06;;;-4.79;78.63
53011;BME280;42803;55.762;38.084;2023-02-20T10:11:02;97667.88;;;-5.00;78.65
53011;BME280;42803;55.762;38.084;2023-02-20T10:13:46;97663.13;;;-4.97;79.12
53011;BME280;42803;55.762;38.084;2023-02-20T10:16:32;97666.91;;;-5.41;79.83
53011;BME280;42803;55.762;38.084;2023-02-20T10:19:14;97674.13;;;-5.37;81.19
53011;BME280;42803;55.762;38.084;2023-02-20T10:21:53;97667.56;;;-5.35;81.49
53011;BME280;42803;55.762;38.084;2023-02-20T10:24:36;97663.63;;;-5.40;81.23
53011;BME280;42803;55.762;38.084;2023-02-20T10:27:21;97670.44;;;-5.32;81.18
53011;BME280;42803;55.762;38.084;2023-02-20T10:29:56;97667.22;;;-5.38;81.42
53011;BME280;42803;55.762;38.084;2023-02-20T10:32:29;97670.41;;;-5.64;81.11
53011;BME280;42803;55.762;38.084;2023-02-20T10:35:02;97663.28;;;-5.75;80.76
53011;BME280;42803;55.762;38.084;2023-02-20T10:37:38;97666.44;;;-5.84;80.44
53011;BME280;42803;55.762;38.084;2023-02-20T10:40:22;97665.84;;;-5.43;81.06
53011;BME280;42803;55.762;38.084;2023-02-20T10:43:00;97669.28;;;-5.43;82.21
53011;BME280;42803;55.762;38.084;2023-02-20T10:45:34;97662.81;;;-5.32;82.44
53011;BME280;42803;55.762;38.084;2023-02-20T10:48:06;97661.66;;;-5.43;82.65
53011;BME280;42803;55.762;38.084;2023-02-20T10:50:40;97659.28;;;-5.57;82.29
53011;BME280;42803;55.762;38.084;2023-02-20T10:53:18;97658.13;;;-5.68;81.87
53011;BME280;42803;55.762;38.084;2023-02-20T10:55:52;97661.50;;;-5.44;82.15
53011;BME280;42803;55.762;38.084;2023-02-20T10:58:26;97664.13;;;-5.20;81.55
53011;BME280;42803;55.762;38.084;2023-02-20T11:01:03;97655.84;;;-4.70;80.04
53011;BME280;42803;55.762;38.084;2023-02-20T11:03:38;97651.59;;;-4.78;78.57
53011;BME280;42803;55.762;38.084;2023-02-20T11:06:13;97652.56;;;-4.69;78.03
53011;BME280;42803;55.762;38.084;2023-02-20T11:08:44;97661.81;;;-4.53;78.89
53011;BME280;42803;55.762;38.084;2023-02-20T11:11:24;97669.34;;;-4.86;78.48
53011;BME280;42803;55.762;38.084;2023-02-20T11:13:54;97660.13;;;-4.77;77.12
53011;BME280;42803;55.762;38.084;2023-02-20T11:16:27;97661.63;;;-4.79;77.60
53011;BME280;42803;55.762;38.084;2023-02-20T11:19:05;97656.56;;;-4.95;78.55
53011;BME280;42803;55.762;38.084;2023-02-20T11:21:38;97655.97;;;-4.93;78.88
53011;BME280;42803;55.762;38.084;2023-02-20T11:24:18;97657.69;;;-5.00;77.74
53011;BME280;42803;55.762;38.084;2023-02-20T11:26:48;97659.38;;;-5.17;79.29
53011;BME280;42803;55.762;38.084;2023-02-20T11:29:21;97651.81;;;-5.55;79.99
53011;BME280;42803;55.762;38.084;2023-02-20T11:31:52;97656.47;;;-5.67;80.27
53011;BME280;42803;55.762;38.084;2023-02-20T11:34:23;97660.41;;;-5.62;80.83
53011;BME280;42803;55.762;38.084;2023-02-20T11:36:55;97665.91;;;-5.50;81.05
53011;BME280;42803;55.762;38.084;2023-02-20T11:39:32;97658.34;;;-5.57;80.37
53011;BME280;42803;55.762;38.084;2023-02-20T11:42:09;97656.28;;;-5.69;81.61
53011;BME280;42803;55.762;38.084;2023-02-20T11:44:39;97662.03;;;-5.78;81.95
53011;BME280;42803;55.762;38.084;2023-02-20T11:47:23;97665.78;;;-5.91;81.87
53011;BME280;42803;55.762;38.084;2023-02-20T11:50:14;97668.41;;;-5.82;83.15
53011;BME280;42803;55.762;38.084;2023-02-20T11:53:00;97664.50;;;-5.71;82.45
53011;BME280;42803;55.762;38.084;2023-02-20T11:55:32;97666.44;;;-5.69;81.60
53011;BME280;42803;55.762;38.084;2023-02-20T11:58:01;97670.63;;;-5.69;81.57
53011;BME280;42803;55.762;38.084;2023-02-20T12:00:45;97675.16;;;-5.67;80.75
53011;BME280;42803;55.762;38.084;2023-02-20T12:03:21;97673.09;;;-5.78;80.57
53011;BME280;42803;55.762;38.084;2023-02-20T12:05:51;97669.38;;;-5.89;80.89
53011;BME280;42803;55.762;38.084;2023-02-20T12:08:47;97673.25;;;-5.92;81.19
53011;BME280;42803;55.762;38.084;2023-02-20T12:11:20;97672.75;;;-5.81;81.51
53011;BME280;42803;55.762;38.084;2023-02-20T12:13:51;97686.41;;;-5.65;82.09
53011;BME280;42803;55.762;38.084;2023-02-20T12:16:49;97677.06;;;-5.57;81.96
53011;BME280;42803;55.762;38.084;2023-02-20T12:19:28;97682.66;;;-5.52;82.28
53011;BME280;42803;55.762;38.084;2023-02-20T12:22:11;97676.47;;;-5.70;81.01
53011;BME280;42803;55.762;38.084;2023-02-20T12:24:57;97683.69;;;-5.66;81.67
53011;BME280;42803;55.762;38.084;2023-02-20T12:27:39;97682.53;;;-5.61;81.34
53011;BME280;42803;55.762;38.084;2023-02-20T12:30:26;97685.66;;;-5.64;81.76
53011;BME280;42803;55.762;38.084;2023-02-20T12:33:16;97673.84;;;-5.63;81.69
53011;BME280;42803;55.762;38.084;2023-02-20T12:35:55;97680.59;;;-5.48;80.88
53011;BME280;42803;55.762;38.084;2023-02-20T12:38:39;97676.25;;;-5.49;80.34
53011;BME280;42803;55.762;38.084;2023-02-20T12:41:38;97667.28;;;-5.61;81.25
53011;BME280;42803;55.762;38.084;2023-02-20T12:47:16;97680.78;;;-5.85;80.94
53011;BME280;42803;55.762;38.084;2023-02-20T12:50:09;97681.16;;;-6.05;80.96
53011;BME280;42803;55.762;38.084;2023-02-20T12:53:03;97681.22;;;-6.35;81.29
53011;BME280;42803;55.762;38.084;2023-02-20T12:55:41;97686.34;;;-6.42;81.58
53011;BME280;42803;55.762;38.084;2023-02-20T12:58:19;97677.72;;;-6.51;81.93
53011;BME280;42803;55.762;38.084;2023-02-20T13:00:57;97684.97;;;-6.54;82.17
53011;BME280;42803;55.762;38.084;2023-02-20T13:03:39;97686.88;;;-6.68;83.09
53011;BME280;42803;55.762;38.084;2023-02-20T13:06:17;97686.25;;;-6.88;84.18
53011;BME280;42803;55.762;38.084;2023-02-20T13:08:58;97688.13;;;-7.01;84.91
53011;BME280;42803;55.762;38.084;2023-02-20T13:11:33;97686.16;;;-7.04;84.77
53011;BME280;42803;55.762;38.084;2023-02-20T13:14:16;97694.28;;;-7.06;85.52
53011;BME280;42803;55.762;38.084;2023-02-20T13:16:51;97681.31;;;-7.17;86.25
53011;BME280;42803;55.762;38.084;2023-02-20T13:19:29;97682.09;;;-7.32;86.97
53011;BME280;42803;55.762;38.084;2023-02-20T13:22:02;97690.09;;;-7.43;87.79
53011;BME280;42803;55.762;38.084;2023-02-20T13:24:35;97687.91;;;-7.40;87.83
53011;BME280;42803;55.762;38.084;2023-02-20T13:27:05;97689.19;;;-7.44;88.53
53011;BME280;42803;55.762;38.084;2023-02-20T13:29:36;97696.22;;;-7.34;88.30